sensor_id;sensor_type;location;lat;lon;timestamp;pressure;altitude;pressure_sealevel;temperature;humidity
44988;BME280;35735;52.226;21.254;2023-06-24T00:01:06;100343.78;;;19.86;100.00
44988;BME280;35735;52.226;21.254;2023-06-24T00:06:07;100352.19;;;19.82;100.00
44988;BME280;35735;52.226;21.254;2023-06-24T00:11:07;100352.19;;;19.82;100.00
44988;BME280;35735;52.226;21.254;2023-06-24T00:16:08;100350.94;;;19.90;100.00
44988;BME280;35735;52.226;21.254;2023-06-24T00:21:09;100357.34;;;19.89;100.00
44988;BME280;35735;52.226;21.254;2023-06-24T00:26:10;100356.47;;;19.89;100.00
44988;BME280;35735;52.226;21.254;2023-06-24T00:31:10;100372.91;;;19.89;100.00
44988;BME280;35735;52.226;21.254;2023-06-24T00:36:11;100360.03;;;19.91;100.00
44988;BME280;35735;52.226;21.254;2023-06-24T00:41:11;100360.16;;;19.88;100.00
44988;BME280;35735;52.226;21.254;2023-06-24T00:46:12;100369.41;;;19.85;100.00
44988;BME280;35735;52.226;21.254;2023-06-24T00:51:12;100373.03;;;19.86;100.00
44988;BME280;35735;52.226;21.254;2023-06-24T00:56:14;100376.97;;;19.78;100.00
44988;BME280;35735;52.226;21.254;2023-06-24T01:01:17;100388.12;;;19.72;100.00
44988;BME280;35735;52.226;21.254;2023-06-24T01:06:17;100391.81;;;19.71;100.00
44988;BME280;35735;52.226;21.254;2023-06-24T01:11:18;100401.09;;;19.67;100.00
44988;BME280;35735;52.226;21.254;2023-06-24T01:16:33;100405.75;;;19.65;100.00
44988;BME280;35735;52.226;21.254;2023-06-24T01:21:58;100406.69;;;19.64;100.00
44988;BME280;35735;52.226;21.254;2023-06-24T01:32:50;100408.91;;;19.53;100.00
44988;BME280;35735;52.226;21.254;2023-06-24T01:37:56;100428.69;;;19.61;100.00
44988;BME280;35735;52.226;21.254;2023-06-24T01:43:01;100423.34;;;19.58;100.00
44988;BME280;35735;52.226;21.254;2023-06-24T01:48:13;100423.06;;;19.66;100.00
44988;BME280;35735;52.226;21.254;2023-06-24T01:53:18;100422.44;;;19.57;100.00
44988;BME280;35735;52.226;21.254;2023-06-24T01:58:21;100426.22;;;19.55;100.00
44988;BME280;35735;52.226;21.254;2023-06-24T02:03:23;100417.88;;;19.58;100.00
44988;BME280;35735;52.226;21.254;2023-06-24T02:08:25;100420.53;;;19.59;100.00
44988;BME280;35735;52.226;21.254;2023-06-24T02:13:31;100426.63;;;19.42;100.00
44988;BME280;35735;52.226;21.254;2023-06-24T02:18:35;100417.19;;;19.26;100.00
44988;BME280;35735;52.226;21.254;2023-06-24T02:23:38;100430.37;;;19.15;100.00
44988;BME280;35735;52.226;21.254;2023-06-24T02:28:40;100444.44;;;19.04;100.00
44988;BME280;35735;52.226;21.254;2023-06-24T02:33:41;100451.94;;;18.97;100.00
44988;BME280;35735;52.226;21.254;2023-06-24T02:38:42;100445.75;;;18.92;100.00
44988;BME280;35735;52.226;21.254;2023-06-24T02:43:42;100444.19;;;18.85;100.00
44988;BME280;35735;52.226;21.254;2023-06-24T02:48:44;100453.22;;;18.87;100.00
44988;BME280;35735;52.226;21.254;2023-06-24T02:53:46;100457.06;;;18.80;100.00
44988;BME280;35735;52.226;21.254;2023-06-24T02:58:47;100456.28;;;18.76;100.00
44988;BME280;35735;52.226;21.254;2023-06-24T03:03:48;100459.16;;;18.72;100.00
44988;BME280;35735;52.226;21.254;2023-06-24T03:08:49;100462.78;;;18.72;100.00
44988;BME280;35735;52.226;21.254;2023-06-24T03:13:51;100459.16;;;18.72;100.00
44988;BME280;35735;52.226;21.254;2023-06-24T03:18:51;100460.78;;;18.77;100.00
44988;BME280;35735;52.226;21.254;2023-06-24T03:23:52;100474.19;;;18.86;100.00
44988;BME280;35735;52.226;21.254;2023-06-24T03:28:52;100478.66;;;18.89;100.00
44988;BME280;35735;52.226;21.254;2023-06-24T03:33:53;100487.41;;;19.00;100.00
44988;BME280;35735;52.226;21.254;2023-06-24T03:38:53;100484.56;;;19.03;100.00
44988;BME280;35735;52.226;21.254;2023-06-24T03:43:54;100487.31;;;19.03;100.00
44988;BME280;35735;52.226;21.254;2023-06-24T03:48:54;100491.75;;;19.06;100.00
44988;BME280;35735;52.226;21.254;2023-06-24T03:53:55;100501.50;;;19.15;100.00
44988;BME280;35735;52.226;21.254;2023-06-24T03:58:55;100509.69;;;19.16;100.00
44988;BME280;35735;52.226;21.254;2023-06-24T04:03:56;100507.91;;;19.40;100.00
44988;BME280;35735;52.226;21.254;2023-06-24T04:08:56;100506.69;;;19.49;100.00
44988;BME280;35735;52.226;21.254;2023-06-24T04:13:57;100500.78;;;19.61;100.00
44988;BME280;35735;52.226;21.254;2023-06-24T04:18:57;100504.25;;;19.67;100.00
44988;BME280;35735;52.226;21.254;2023-06-24T04:23:58;100497.00;;;19.91;100.00
44988;BME280;35735;52.226;21.254;2023-06-24T04:28:59;100500.06;;;20.30;100.00
44988;BME280;35735;52.226;21.254;2023-06-24T04:33:59;100496.47;;;20.76;100.00
44988;BME280;35735;52.226;21.254;2023-06-24T04:39:00;100503.88;;;20.96;100.00
44988;BME280;35735;52.226;21.254;2023-06-24T04:44:00;100503.50;;;21.05;100.00
44988;BME280;35735;52.226;21.254;2023-06-24T04:49:01;100511.56;;;21.08;100.00
44988;BME280;35735;52.226;21.254;2023-06-24T04:54:01;100508.88;;;21.06;100.00
44988;BME280;35735;52.226;21.254;2023-06-24T04:59:02;100515.63;;;21.20;100.00
44988;BME280;35735;52.226;21.254;2023-06-24T05:04:03;100506.72;;;21.37;100.00
44988;BME280;35735;52.226;21.254;2023-06-24T05:09:03;100502.25;;;21.55;100.00
44988;BME280;35735;52.226;21.254;2023-06-24T05:14:04;100506.88;;;21.54;100.00
44988;BME280;35735;52.226;21.254;2023-06-24T05:19:04;100517.72;;;21.57;100.00
44988;BME280;35735;52.226;21.254;2023-06-24T05:24:05;100515.94;;;21.56;100.00
44988;BME280;35735;52.226;21.254;2023-06-24T05:29:06;100525.97;;;21.57;100.00
44988;BME280;35735;52.226;21.254;2023-06-24T05:34:06;100532.16;;;21.62;100.00
44988;BME280;35735;52.226;21.254;2023-06-24T05:39:07;100536.53;;;21.67;100.00
44988;BME280;35735;52.226;21.254;2023-06-24T05:44:08;100541.81;;;21.71;100.00
44988;BME280;35735;52.226;21.254;2023-06-24T05:49:09;100549.88;;;21.76;100.00
44988;BME280;35735;52.226;21.254;2023-06-24T05:54:10;100553.19;;;21.84;100.00
44988;BME280;35735;52.226;21.254;2023-06-24T05:59:10;100564.72;;;21.92;100.00
44988;BME280;35735;52.226;21.254;2023-06-24T06:04:11;100563.13;;;22.07;100.00
44988;BME280;35735;52.226;21.254;2023-06-24T06:09:11;100564.41;;;22.19;100.00
44988;BME280;35735;52.226;21.254;2023-06-24T06:14:12;100573.84;;;22.34;99.55
44988;BME280;35735;52.226;21.254;2023-06-24T06:19:12;100573.19;;;22.48;98.78
44988;BME280;35735;52.226;21.254;2023-06-24T06:24:13;100572.19;;;22.69;98.96
44988;BME280;35735;52.226;21.254;2023-06-24T06:29:13;100569.84;;;22.98;98.53
44988;BME280;35735;52.226;21.254;2023-06-24T06:34:14;100568.53;;;23.26;97.70
44988;BME280;35735;52.226;21.254;2023-06-24T06:39:14;100573.50;;;23.54;96.32
44988;BME280;35735;52.226;21.254;2023-06-24T06:44:15;100582.66;;;23.72;95.92
44988;BME280;35735;52.226;21.254;2023-06-24T06:49:16;100587.56;;;24.02;95.44
44988;BME280;35735;52.226;21.254;2023-06-24T06:54:16;100584.56;;;24.24;94.13
44988;BME280;35735;52.226;21.254;2023-06-24T06:59:17;100586.03;;;24.47;94.17
44988;BME280;35735;52.226;21.254;2023-06-24T07:04:17;100580.81;;;24.76;93.40
44988;BME280;35735;52.226;21.254;2023-06-24T07:09:19;100582.31;;;25.13;92.63
44988;BME280;35735;52.226;21.254;2023-06-24T07:14:20;100575.31;;;25.40;91.74
44988;BME280;35735;52.226;21.254;2023-06-24T07:19:20;100577.75;;;25.60;90.97
44988;BME280;35735;52.226;21.254;2023-06-24T07:24:21;100573.88;;;25.79;90.06
44988;BME280;35735;52.226;21.254;2023-06-24T07:29:21;100575.84;;;25.77;88.55
44988;BME280;35735;52.226;21.254;2023-06-24T07:34:22;100566.44;;;25.79;88.08
44988;BME280;35735;52.226;21.254;2023-06-24T07:39:23;100567.19;;;25.83;87.66
44988;BME280;35735;52.226;21.254;2023-06-24T07:44:23;100564.59;;;25.80;87.32
44988;BME280;35735;52.226;21.254;2023-06-24T07:49:24;100574.97;;;25.91;87.30
44988;BME280;35735;52.226;21.254;2023-06-24T07:54:24;100583.91;;;25.96;86.34
44988;BME280;35735;52.226;21.254;2023-06-24T07:59:25;100575.44;;;25.99;85.86
44988;BME280;35735;52.226;21.254;2023-06-24T08:04:25;100585.63;;;26.13;86.32
44988;BME280;35735;52.226;21.254;2023-06-24T08:09:26;100588.47;;;26.41;86.34
44988;BME280;35735;52.226;21.254;2023-06-24T08:14:26;100600.72;;;26.66;83.81
44988;BME280;35735;52.226;21.254;2023-06-24T08:19:27;100598.84;;;26.81;84.02
44988;BME280;35735;52.226;21.254;2023-06-24T08:24:28;100596.75;;;26.99;81.55
44988;BME280;35735;52.226;21.254;2023-06-24T08:29:28;100610.41;;;27.16;79.53
44988;BME280;35735;52.226;21.254;2023-06-24T08:34:29;100609.97;;;27.23;79.68
44988;BME280;35735;52.226;21.254;2023-06-24T08:39:29;100618.31;;;27.08;77.51
44988;BME280;35735;52.226;21.254;2023-06-24T08:44:30;100612.97;;;26.91;76.64
44988;BME280;35735;52.226;21.254;2023-06-24T08:49:31;100624.59;;;26.83;76.20
44988;BME280;35735;52.226;21.254;2023-06-24T08:54:35;100620.72;;;26.86;76.15
44988;BME280;35735;52.226;21.254;2023-06-24T08:59:36;100631.00;;;26.84;73.60
44988;BME280;35735;52.226;21.254;2023-06-24T09:04:37;100619.13;;;26.82;73.45
44988;BME280;35735;52.226;21.254;2023-06-24T09:09:44;100619.72;;;26.87;71.58
44988;BME280;35735;52.226;21.254;2023-06-24T09:14:49;100615.34;;;26.97;72.51
44988;BME280;35735;52.226;21.254;2023-06-24T09:19:51;100622.56;;;27.14;71.12
44988;BME280;35735;52.226;21.254;2023-06-24T09:24:51;100618.72;;;27.02;70.02
44988;BME280;35735;52.226;21.254;2023-06-24T09:29:52;100619.09;;;26.96;69.14
44988;BME280;35735;52.226;21.254;2023-06-24T09:34:54;100614.59;;;26.95;69.20
44988;BME280;35735;52.226;21.254;2023-06-24T09:39:54;100615.75;;;26.91;68.87
44988;BME280;35735;52.226;21.254;2023-06-24T09:44:55;100616.34;;;26.96;68.69
44988;BME280;35735;52.226;21.254;2023-06-24T09:49:55;100608.62;;;27.01;69.50
44988;BME280;35735;52.226;21.254;2023-06-24T09:54:57;100613.19;;;27.02;68.67
44988;BME280;35735;52.226;21.254;2023-06-24T09:59:59;100620.50;;;27.03;68.73
44988;BME280;35735;52.226;21.254;2023-06-24T10:05:00;100625.22;;;27.01;67.69
44988;BME280;35735;52.226;21.254;2023-06-24T10:10:03;100618.53;;;26.91;68.95
44988;BME280;35735;52.226;21.254;2023-06-24T10:15:05;100611.38;;;27.01;69.76
44988;BME280;35735;52.226;21.254;2023-06-24T10:20:06;100619.31;;;26.93;69.85
44988;BME280;35735;52.226;21.254;2023-06-24T10:25:07;100615.56;;;26.94;69.55
44988;BME280;35735;52.226;21.254;2023-06-24T10:30:08;100614.38;;;26.84;69.88
44988;BME280;35735;52.226;21.254;2023-06-24T10:35:25;100618.84;;;26.72;69.90
44988;BME280;35735;52.226;21.254;2023-06-24T10:40:36;100619.38;;;26.62;70.40
44988;BME280;35735;52.226;21.254;2023-06-24T10:45:48;100623.09;;;26.63;69.70
44988;BME280;35735;52.226;21.254;2023-06-24T10:50:49;100618.09;;;26.54;69.28
44988;BME280;35735;52.226;21.254;2023-06-24T10:55:50;100620.97;;;26.52;68.95
44988;BME280;35735;52.226;21.254;2023-06-24T11:00:51;100615.12;;;26.42;68.65
44988;BME280;35735;52.226;21.254;2023-06-24T11:05:51;100616.91;;;26.43;68.77
44988;BME280;35735;52.226;21.254;2023-06-24T11:10:52;100617.78;;;26.44;69.54
44988;BME280;35735;52.226;21.254;2023-06-24T11:15:59;100615.25;;;26.55;70.44
44988;BME280;35735;52.226;21.254;2023-06-24T11:21:00;100621.66;;;26.56;67.76
44988;BME280;35735;52.226;21.254;2023-06-24T11:26:02;100618.88;;;26.56;68.35
44988;BME280;35735;52.226;21.254;2023-06-24T11:31:07;100616.63;;;26.62;68.11
44988;BME280;35735;52.226;21.254;2023-06-24T11:36:10;100618.59;;;26.60;68.31
44988;BME280;35735;52.226;21.254;2023-06-24T11:41:11;100611.78;;;26.52;67.40
44988;BME280;35735;52.226;21.254;2023-06-24T11:46:21;100623.84;;;26.51;68.35
44988;BME280;35735;52.226;21.254;2023-06-24T11:51:31;100620.84;;;26.39;67.10
44988;BME280;35735;52.226;21.254;2023-06-24T11:56:35;100620.34;;;26.33;67.62
44988;BME280;35735;52.226;21.254;2023-06-24T12:01:36;100622.91;;;26.21;68.71
44988;BME280;35735;52.226;21.254;2023-06-24T12:06:37;100635.41;;;26.13;69.25
44988;BME280;35735;52.226;21.254;2023-06-24T12:11:38;100628.59;;;26.04;70.59
44988;BME280;35735;52.226;21.254;2023-06-24T12:16:39;100622.69;;;25.94;72.32
44988;BME280;35735;52.226;21.254;2023-06-24T12:21:40;100626.97;;;25.69;73.74
44988;BME280;35735;52.226;21.254;2023-06-24T12:26:41;100633.06;;;25.44;73.54
44988;BME280;35735;52.226;21.254;2023-06-24T12:31:41;100629.12;;;25.32;74.73
44988;BME280;35735;52.226;21.254;2023-06-24T12:36:42;100646.22;;;25.23;75.12
44988;BME280;35735;52.226;21.254;2023-06-24T12:41:42;100632.75;;;25.17;74.44
44988;BME280;35735;52.226;21.254;2023-06-24T12:46:43;100643.78;;;25.01;74.21
44988;BME280;35735;52.226;21.254;2023-06-24T12:51:43;100637.97;;;24.90;74.75
44988;BME280;35735;52.226;21.254;2023-06-24T12:56:44;100636.63;;;24.81;75.18
44988;BME280;35735;52.226;21.254;2023-06-24T13:01:45;100642.16;;;24.81;75.17
44988;BME280;35735;52.226;21.254;2023-06-24T13:06:46;100649.16;;;24.71;75.66
44988;BME280;35735;52.226;21.254;2023-06-24T13:11:46;100642.03;;;24.67;76.08
44988;BME280;35735;52.226;21.254;2023-06-24T13:16:47;100647.37;;;24.70;76.09
44988;BME280;35735;52.226;21.254;2023-06-24T13:21:47;100646.66;;;24.66;75.76
44988;BME280;35735;52.226;21.254;2023-06-24T13:26:48;100643.34;;;24.59;75.69
44988;BME280;35735;52.226;21.254;2023-06-24T13:31:49;100644.59;;;24.52;75.70
44988;BME280;35735;52.226;21.254;2023-06-24T13:36:49;100643.87;;;24.49;75.25
44988;BME280;35735;52.226;21.254;2023-06-24T13:41:50;100639.75;;;24.40;75.95
44988;BME280;35735;52.226;21.254;2023-06-24T13:46:51;100640.66;;;24.40;75.78
44988;BME280;35735;52.226;21.254;2023-06-24T13:51:51;100642.19;;;24.46;76.28
44988;BME280;35735;52.226;21.254;2023-06-24T13:56:52;100636.78;;;24.45;76.18
44988;BME280;35735;52.226;21.254;2023-06-24T14:01:53;100641.03;;;24.50;76.09
44988;BME280;35735;52.226;21.254;2023-06-24T14:06:53;100635.78;;;24.63;76.56
44988;BME280;35735;52.226;21.254;2023-06-24T14:11:54;100649.50;;;24.65;75.29
44988;BME280;35735;52.226;21.254;2023-06-24T14:16:54;100633.41;;;24.73;75.77
44988;BME280;35735;52.226;21.254;2023-06-24T14:21:55;100639.56;;;24.78;75.65
44988;BME280;35735;52.226;21.254;2023-06-24T14:26:55;100641.00;;;24.85;75.64
44988;BME280;35735;52.226;21.254;2023-06-24T14:31:56;100639.03;;;24.87;75.34
44988;BME280;35735;52.226;21.254;2023-06-24T14:36:56;100646.34;;;24.88;75.22
44988;BME280;35735;52.226;21.254;2023-06-24T14:41:57;100637.91;;;24.91;73.76
44988;BME280;35735;52.226;21.254;2023-06-24T14:46:58;100634.94;;;24.78;73.47
44988;BME280;35735;52.226;21.254;2023-06-24T14:51:58;100633.50;;;24.71;73.95
44988;BME280;35735;52.226;21.254;2023-06-24T14:56:59;100630.97;;;24.67;74.02
44988;BME280;35735;52.226;21.254;2023-06-24T15:01:59;100635.06;;;24.59;74.61
44988;BME280;35735;52.226;21.254;2023-06-24T15:07:00;100631.81;;;24.51;74.34
44988;BME280;35735;52.226;21.254;2023-06-24T15:12:02;100629.12;;;24.50;74.81
44988;BME280;35735;52.226;21.254;2023-06-24T15:17:03;100619.50;;;24.41;74.87
44988;BME280;35735;52.226;21.254;2023-06-24T15:22:04;100623.06;;;24.43;75.47
44988;BME280;35735;52.226;21.254;2023-06-24T15:27:04;100625.00;;;24.41;75.89
44988;BME280;35735;52.226;21.254;2023-06-24T15:32:05;100623.53;;;24.34;75.59
44988;BME280;35735;52.226;21.254;2023-06-24T15:37:06;100624.06;;;24.25;75.75
44988;BME280;35735;52.226;21.254;2023-06-24T15:42:07;100622.63;;;24.17;76.59
44988;BME280;35735;52.226;21.254;2023-06-24T15:47:07;100624.25;;;24.04;77.08
44988;BME280;35735;52.226;21.254;2023-06-24T15:52:08;100617.81;;;23.86;78.13
44988;BME280;35735;52.226;21.254;2023-06-24T15:57:08;100626.75;;;23.72;79.09
44988;BME280;35735;52.226;21.254;2023-06-24T16:02:09;100617.53;;;23.56;80.04
44988;BME280;35735;52.226;21.254;2023-06-24T16:07:09;100615.84;;;23.34;81.01
44988;BME280;35735;52.226;21.254;2023-06-24T16:12:10;100607.81;;;23.29;81.88
44988;BME280;35735;52.226;21.254;2023-06-24T16:17:10;100621.94;;;23.22;82.27
44988;BME280;35735;52.226;21.254;2023-06-24T16:22:11;100618.69;;;23.13;82.73
44988;BME280;35735;52.226;21.254;2023-06-24T16:27:11;100613.34;;;23.10;83.10
44988;BME280;35735;52.226;21.254;2023-06-24T16:32:12;100619.19;;;23.03;82.92
44988;BME280;35735;52.226;21.254;2023-06-24T16:37:12;100615.97;;;22.93;82.99
44988;BME280;35735;52.226;21.254;2023-06-24T16:42:13;100621.62;;;22.90;83.58
44988;BME280;35735;52.226;21.254;2023-06-24T16:47:14;100621.62;;;22.90;82.99
44988;BME280;35735;52.226;21.254;2023-06-24T16:52:14;100632.78;;;22.87;82.76
44988;BME280;35735;52.226;21.254;2023-06-24T16:57:15;100632.50;;;22.93;82.80
44988;BME280;35735;52.226;21.254;2023-06-24T17:02:15;100634.72;;;22.85;82.61
44988;BME280;35735;52.226;21.254;2023-06-24T17:07:16;100625.66;;;22.83;82.93
44988;BME280;35735;52.226;21.254;2023-06-24T17:12:16;100625.78;;;22.80;83.30
44988;BME280;35735;52.226;21.254;2023-06-24T17:17:17;100615.25;;;22.70;83.81
44988;BME280;35735;52.226;21.254;2023-06-24T17:22:17;100609.75;;;22.70;84.32
44988;BME280;35735;52.226;21.254;2023-06-24T17:27:18;100594.19;;;22.69;84.84
44988;BME280;35735;52.226;21.254;2023-06-24T17:32:19;100599.34;;;22.77;84.98
44988;BME280;35735;52.226;21.254;2023-06-24T17:37:19;100588.31;;;22.77;85.33
44988;BME280;35735;52.226;21.254;2023-06-24T17:42:20;100576.34;;;22.78;85.44
44988;BME280;35735;52.226;21.254;2023-06-24T17:47:21;100590.03;;;22.80;85.69
44988;BME280;35735;52.226;21.254;2023-06-24T17:52:22;100582.91;;;22.75;85.37
44988;BME280;35735;52.226;21.254;2023-06-24T17:57:22;100582.06;;;22.73;85.76
44988;BME280;35735;52.226;21.254;2023-06-24T18:02:23;100584.81;;;22.73;85.84
44988;BME280;35735;52.226;21.254;2023-06-24T18:07:24;100575.59;;;22.74;86.38
44988;BME280;35735;52.226;21.254;2023-06-24T18:12:24;100582.06;;;22.73;87.06
44988;BME280;35735;52.226;21.254;2023-06-24T18:17:25;100582.97;;;22.74;87.45
44988;BME280;35735;52.226;21.254;2023-06-24T18:22:25;100587.56;;;22.73;87.90
44988;BME280;35735;52.226;21.254;2023-06-24T18:27:26;100582.38;;;22.67;88.14
44988;BME280;35735;52.226;21.254;2023-06-24T18:32:26;100584.44;;;22.62;88.21
44988;BME280;35735;52.226;21.254;2023-06-24T18:37:27;100588.22;;;22.60;88.54
44988;BME280;35735;52.226;21.254;2023-06-24T18:42:27;100592.31;;;22.51;88.78
44988;BME280;35735;52.226;21.254;2023-06-24T18:47:28;100590.81;;;22.44;89.24
44988;BME280;35735;52.226;21.254;2023-06-24T18:52:28;100599.56;;;22.33;89.51
44988;BME280;35735;52.226;21.254;2023-06-24T18:57:29;100602.22;;;22.14;89.92
44988;BME280;35735;52.226;21.254;2023-06-24T19:02:30;100598.50;;;21.94;90.67
44988;BME280;35735;52.226;21.254;2023-06-24T19:07:30;100604.81;;;21.76;91.29
44988;BME280;35735;52.226;21.254;2023-06-24T19:12:31;100603.56;;;21.62;91.82
44988;BME280;35735;52.226;21.254;2023-06-24T19:17:31;100606.09;;;21.45;92.53
44988;BME280;35735;52.226;21.254;2023-06-24T19:22:32;100614.97;;;21.29;93.13
44988;BME280;35735;52.226;21.254;2023-06-24T19:27:32;100612.75;;;21.17;93.71
44988;BME280;35735;52.226;21.254;2023-06-24T19:32:33;100614.19;;;21.04;94.27
44988;BME280;35735;52.226;21.254;2023-06-24T19:37:34;100620.72;;;20.78;94.89
44988;BME280;35735;52.226;21.254;2023-06-24T19:42:34;100612.19;;;20.62;95.51
44988;BME280;35735;52.226;21.254;2023-06-24T19:47:35;100608.81;;;20.53;95.97
44988;BME280;35735;52.226;21.254;2023-06-24T19:52:36;100603.94;;;20.38;96.16
44988;BME280;35735;52.226;21.254;2023-06-24T19:57:36;100611.94;;;20.19;96.88
44988;BME280;35735;52.226;21.254;2023-06-24T20:02:37;100616.13;;;20.04;97.33
44988;BME280;35735;52.226;21.254;2023-06-24T20:07:37;100617.47;;;19.92;97.79
44988;BME280;35735;52.226;21.254;2023-06-24T20:12:38;100614.25;;;19.79;98.43
44988;BME280;35735;52.226;21.254;2023-06-24T20:17:38;100607.72;;;19.57;98.81
44988;BME280;35735;52.226;21.254;2023-06-24T20:22:39;100603.50;;;19.47;99.42
44988;BME280;35735;52.226;21.254;2023-06-24T20:27:40;100612.25;;;19.31;99.76
44988;BME280;35735;52.226;21.254;2023-06-24T20:32:41;100609.16;;;19.14;100.00
44988;BME280;35735;52.226;21.254;2023-06-24T20:37:42;100609.34;;;19.07;100.00
44988;BME280;35735;52.226;21.254;2023-06-24T20:42:43;100607.66;;;19.03;100.00
44988;BME280;35735;52.226;21.254;2023-06-24T20:47:43;100612.47;;;18.95;100.00
44988;BME280;35735;52.226;21.254;2023-06-24T20:52:44;100611.97;;;18.81;100.00
44988;BME280;35735;52.226;21.254;2023-06-24T20:57:44;100615.09;;;18.68;100.00
44988;BME280;35735;52.226;21.254;2023-06-24T21:02:45;100613.53;;;18.60;100.00
44988;BME280;35735;52.226;21.254;2023-06-24T21:07:45;100616.50;;;18.52;100.00
44988;BME280;35735;52.226;21.254;2023-06-24T21:12:46;100611.41;;;18.40;100.00
44988;BME280;35735;52.226;21.254;2023-06-24T21:17:46;100610.66;;;18.35;100.00
44988;BME280;35735;52.226;21.254;2023-06-24T21:22:47;100609.78;;;18.32;100.00
44988;BME280;35735;52.226;21.254;2023-06-24T21:27:47;100607.28;;;18.25;100.00
44988;BME280;35735;52.226;21.254;2023-06-24T21:32:49;100608.31;;;18.19;100.00
44988;BME280;35735;52.226;21.254;2023-06-24T21:37:49;100601.34;;;18.09;100.00
44988;BME280;35735;52.226;21.254;2023-06-24T21:42:50;100599.66;;;18.05;100.00
44988;BME280;35735;52.226;21.254;2023-06-24T21:47:50;100605.44;;;17.92;100.00
44988;BME280;35735;52.226;21.254;2023-06-24T21:52:51;100602.84;;;17.86;100.00
44988;BME280;35735;52.226;21.254;2023-06-24T21:57:52;100603.94;;;17.79;100.00
44988;BME280;35735;52.226;21.254;2023-06-24T22:02:52;100600.56;;;17.71;100.00
44988;BME280;35735;52.226;21.254;2023-06-24T22:07:53;100603.44;;;17.65;100.00
44988;BME280;35735;52.226;21.254;2023-06-24T22:12:53;100601.00;;;17.52;100.00
44988;BME280;35735;52.226;21.254;2023-06-24T22:17:54;100612.03;;;17.49;100.00
44988;BME280;35735;52.226;21.254;2023-06-24T22:22:54;100613.87;;;17.47;100.00
44988;BME280;35735;52.226;21.254;2023-06-24T22:27:55;100613.06;;;17.44;100.00
44988;BME280;35735;52.226;21.254;2023-06-24T22:32:55;100621.47;;;17.36;100.00
44988;BME280;35735;52.226;21.254;2023-06-24T22:37:56;100618.03;;;17.28;100.00
44988;BME280;35735;52.226;21.254;2023-06-24T22:42:57;100611.81;;;17.21;100.00
44988;BME280;35735;52.226;21.254;2023-06-24T22:47:57;100613.75;;;17.16;100.00
44988;BME280;35735;52.226;21.254;2023-06-24T22:52:58;100604.16;;;16.99;100.00
44988;BME280;35735;52.226;21.254;2023-06-24T22:57:58;100610.03;;;16.79;100.00
44988;BME280;35735;52.226;21.254;2023-06-24T23:02:59;100616.81;;;16.60;100.00
44988;BME280;35735;52.226;21.254;2023-06-24T23:08:00;100606.19;;;16.47;100.00
44988;BME280;35735;52.226;21.254;2023-06-24T23:13:00;100612.63;;;16.43;100.00
44988;BME280;35735;52.226;21.254;2023-06-24T23:18:02;100602.69;;;16.41;100.00
44988;BME280;35735;52.226;21.254;2023-06-24T23:23:03;100596.41;;;16.37;100.00
44988;BME280;35735;52.226;21.254;2023-06-24T23:28:03;100600.19;;;16.30;100.00
44988;BME280;35735;52.226;21.254;2023-06-24T23:33:05;100600.19;;;16.30;100.00
44988;BME280;35735;52.226;21.254;2023-06-24T23:38:06;100590.25;;;16.29;100.00
44988;BME280;35735;52.226;21.254;2023-06-24T23:43:06;100595.06;;;16.15;100.00
44988;BME280;35735;52.226;21.254;2023-06-24T23:48:07;100589.53;;;16.19;100.00
44988;BME280;35735;52.226;21.254;2023-06-24T23:53:08;100586.03;;;16.12;100.00
44988;BME280;35735;52.226;21.254;2023-06-24T23:58:09;100584.41;;;16.02;100.00
